West Springfield, Pennsylvania
Current Conditions -  °F | °C
As of 5:53 AM on Wednesday 22 Oct 2014 (Local Time) from KHZY Reporting Station
Overcast Overcast  
Wind Chill: 40°   Ceiling: 900
Heat Index: 46°   Visibility: 10mi
Dew Point: 43°   Wind: 13mph
Humidity: 89%   Direction: 30°NNE
Pressure: 30.16"   Gusts: 17mph
Location:  41.95°N, 80.47°W
Report Text: KHZY 220953Z AUTO 03011G15KT 010V070 10SM OVC009 08/06 A3016 RMK AO2 SLP217 T00780061
Loading
Personal Weather Stations






























Interactive Weather Map
Tropical Storm Tracking
New forecast layout! Learn more

10-Day Weather Forecast

Advertisements
Track Severe Weather on mobile